sensor_id;sensor_type;location;lat;lon;timestamp;P1;durP1;ratioP1;P2;durP2;ratioP2
15159;SDS011;7680;48.800;9.680;2023-11-21T00:02:07;7.35;;;4.47;;
15159;SDS011;7680;48.800;9.680;2023-11-21T00:07:11;8.30;;;4.60;;
15159;SDS011;7680;48.800;9.680;2023-11-21T00:12:15;8.25;;;4.82;;
15159;SDS011;7680;48.800;9.680;2023-11-21T00:17:19;8.87;;;5.33;;
15159;SDS011;7680;48.800;9.680;2023-11-21T00:22:23;10.70;;;5.28;;
15159;SDS011;7680;48.800;9.680;2023-11-21T00:27:27;9.60;;;5.22;;
15159;SDS011;7680;48.800;9.680;2023-11-21T00:32:30;8.03;;;4.97;;
15159;SDS011;7680;48.800;9.680;2023-11-21T00:37:34;7.85;;;5.40;;
15159;SDS011;7680;48.800;9.680;2023-11-21T00:42:40;8.97;;;5.00;;
15159;SDS011;7680;48.800;9.680;2023-11-21T00:47:43;8.57;;;5.47;;
15159;SDS011;7680;48.800;9.680;2023-11-21T00:52:48;8.73;;;5.72;;
15159;SDS011;7680;48.800;9.680;2023-11-21T00:57:52;7.40;;;5.30;;
15159;SDS011;7680;48.800;9.680;2023-11-21T01:02:56;8.20;;;5.17;;
15159;SDS011;7680;48.800;9.680;2023-11-21T01:08:00;9.13;;;5.25;;
15159;SDS011;7680;48.800;9.680;2023-11-21T01:13:04;7.77;;;5.47;;
15159;SDS011;7680;48.800;9.680;2023-11-21T01:18:08;6.95;;;5.47;;
15159;SDS011;7680;48.800;9.680;2023-11-21T01:23:12;6.43;;;4.77;;
15159;SDS011;7680;48.800;9.680;2023-11-21T01:28:16;6.90;;;4.63;;
15159;SDS011;7680;48.800;9.680;2023-11-21T01:33:19;8.73;;;4.55;;
15159;SDS011;7680;48.800;9.680;2023-11-21T01:38:23;5.27;;;4.60;;
15159;SDS011;7680;48.800;9.680;2023-11-21T01:43:26;9.13;;;5.23;;
15159;SDS011;7680;48.800;9.680;2023-11-21T01:48:31;9.25;;;4.85;;
15159;SDS011;7680;48.800;9.680;2023-11-21T01:53:36;4.63;;;3.60;;
15159;SDS011;7680;48.800;9.680;2023-11-21T01:58:39;5.37;;;3.50;;
15159;SDS011;7680;48.800;9.680;2023-11-21T02:03:44;4.53;;;2.97;;
15159;SDS011;7680;48.800;9.680;2023-11-21T02:08:49;4.75;;;4.00;;
15159;SDS011;7680;48.800;9.680;2023-11-21T02:13:52;9.20;;;4.33;;
15159;SDS011;7680;48.800;9.680;2023-11-21T02:18:56;7.33;;;3.57;;
15159;SDS011;7680;48.800;9.680;2023-11-21T02:24:01;5.00;;;3.17;;
15159;SDS011;7680;48.800;9.680;2023-11-21T02:29:04;4.47;;;3.10;;
15159;SDS011;7680;48.800;9.680;2023-11-21T02:34:07;4.07;;;3.10;;
15159;SDS011;7680;48.800;9.680;2023-11-21T02:39:12;4.00;;;2.72;;
15159;SDS011;7680;48.800;9.680;2023-11-21T02:44:15;4.13;;;3.00;;
15159;SDS011;7680;48.800;9.680;2023-11-21T02:49:18;4.57;;;3.03;;
15159;SDS011;7680;48.800;9.680;2023-11-21T02:54:23;4.47;;;3.50;;
15159;SDS011;7680;48.800;9.680;2023-11-21T02:59:28;4.90;;;3.88;;
15159;SDS011;7680;48.800;9.680;2023-11-21T03:04:31;6.60;;;3.08;;
15159;SDS011;7680;48.800;9.680;2023-11-21T03:09:38;5.95;;;2.85;;
15159;SDS011;7680;48.800;9.680;2023-11-21T03:14:41;3.63;;;2.60;;
15159;SDS011;7680;48.800;9.680;2023-11-21T03:19:44;3.00;;;2.30;;
15159;SDS011;7680;48.800;9.680;2023-11-21T03:24:48;4.70;;;2.60;;
15159;SDS011;7680;48.800;9.680;2023-11-21T03:29:51;2.58;;;2.17;;
15159;SDS011;7680;48.800;9.680;2023-11-21T03:34:56;4.95;;;2.55;;
15159;SDS011;7680;48.800;9.680;2023-11-21T03:40:03;4.50;;;2.40;;
15159;SDS011;7680;48.800;9.680;2023-11-21T03:45:09;3.72;;;3.20;;
15159;SDS011;7680;48.800;9.680;2023-11-21T03:50:14;3.88;;;2.53;;
15159;SDS011;7680;48.800;9.680;2023-11-21T03:55:19;4.10;;;2.70;;
15159;SDS011;7680;48.800;9.680;2023-11-21T04:00:22;5.97;;;3.15;;
15159;SDS011;7680;48.800;9.680;2023-11-21T04:05:25;4.73;;;3.23;;
15159;SDS011;7680;48.800;9.680;2023-11-21T04:10:30;5.00;;;2.97;;
15159;SDS011;7680;48.800;9.680;2023-11-21T04:15:33;5.88;;;2.97;;
15159;SDS011;7680;48.800;9.680;2023-11-21T04:20:36;6.68;;;3.10;;
15159;SDS011;7680;48.800;9.680;2023-11-21T04:25:40;5.07;;;2.93;;
15159;SDS011;7680;48.800;9.680;2023-11-21T04:30:44;4.32;;;2.60;;
15159;SDS011;7680;48.800;9.680;2023-11-21T04:35:47;3.50;;;2.67;;
15159;SDS011;7680;48.800;9.680;2023-11-21T04:40:51;3.40;;;2.65;;
15159;SDS011;7680;48.800;9.680;2023-11-21T04:45:54;5.47;;;3.10;;
15159;SDS011;7680;48.800;9.680;2023-11-21T04:50:58;4.15;;;3.10;;
15159;SDS011;7680;48.800;9.680;2023-11-21T04:56:02;4.43;;;2.70;;
15159;SDS011;7680;48.800;9.680;2023-11-21T05:01:07;2.97;;;2.13;;
15159;SDS011;7680;48.800;9.680;2023-11-21T05:06:10;2.75;;;2.47;;
15159;SDS011;7680;48.800;9.680;2023-11-21T05:11:23;3.80;;;3.35;;
15159;SDS011;7680;48.800;9.680;2023-11-21T05:16:27;3.38;;;2.58;;
15159;SDS011;7680;48.800;9.680;2023-11-21T05:21:30;4.82;;;2.50;;
15159;SDS011;7680;48.800;9.680;2023-11-21T05:26:35;3.00;;;2.63;;
15159;SDS011;7680;48.800;9.680;2023-11-21T05:31:38;4.32;;;3.78;;
15159;SDS011;7680;48.800;9.680;2023-11-21T05:36:42;4.75;;;4.20;;
15159;SDS011;7680;48.800;9.680;2023-11-21T05:41:48;4.32;;;3.92;;
15159;SDS011;7680;48.800;9.680;2023-11-21T05:46:51;4.93;;;4.03;;
15159;SDS011;7680;48.800;9.680;2023-11-21T05:51:54;5.50;;;4.70;;
15159;SDS011;7680;48.800;9.680;2023-11-21T05:57:02;6.50;;;5.17;;
15159;SDS011;7680;48.800;9.680;2023-11-21T06:02:06;7.13;;;6.18;;
15159;SDS011;7680;48.800;9.680;2023-11-21T06:07:09;5.57;;;4.30;;
15159;SDS011;7680;48.800;9.680;2023-11-21T06:12:14;4.93;;;3.95;;
15159;SDS011;7680;48.800;9.680;2023-11-21T06:17:18;12.48;;;7.85;;
15159;SDS011;7680;48.800;9.680;2023-11-21T06:22:21;7.03;;;5.93;;
15159;SDS011;7680;48.800;9.680;2023-11-21T06:27:26;6.00;;;5.40;;
15159;SDS011;7680;48.800;9.680;2023-11-21T06:32:29;6.10;;;5.50;;
15159;SDS011;7680;48.800;9.680;2023-11-21T06:37:32;6.05;;;5.45;;
15159;SDS011;7680;48.800;9.680;2023-11-21T06:42:37;6.37;;;5.87;;
15159;SDS011;7680;48.800;9.680;2023-11-21T06:47:40;6.53;;;5.93;;
15159;SDS011;7680;48.800;9.680;2023-11-21T06:52:44;6.38;;;5.63;;
15159;SDS011;7680;48.800;9.680;2023-11-21T06:57:48;5.93;;;4.97;;
15159;SDS011;7680;48.800;9.680;2023-11-21T07:02:53;4.65;;;4.25;;
15159;SDS011;7680;48.800;9.680;2023-11-21T07:07:56;4.80;;;4.13;;
15159;SDS011;7680;48.800;9.680;2023-11-21T07:13:07;6.53;;;5.93;;
15159;SDS011;7680;48.800;9.680;2023-11-21T07:18:12;4.25;;;3.95;;
15159;SDS011;7680;48.800;9.680;2023-11-21T07:23:15;3.88;;;3.58;;
15159;SDS011;7680;48.800;9.680;2023-11-21T07:28:20;4.23;;;3.90;;
15159;SDS011;7680;48.800;9.680;2023-11-21T07:33:23;4.57;;;4.00;;
15159;SDS011;7680;48.800;9.680;2023-11-21T07:38:26;5.53;;;4.93;;
15159;SDS011;7680;48.800;9.680;2023-11-21T07:43:31;4.45;;;3.63;;
15159;SDS011;7680;48.800;9.680;2023-11-21T07:48:36;12.45;;;11.20;;
15159;SDS011;7680;48.800;9.680;2023-11-21T07:53:39;7.43;;;6.75;;
15159;SDS011;7680;48.800;9.680;2023-11-21T07:58:44;7.32;;;6.63;;
15159;SDS011;7680;48.800;9.680;2023-11-21T08:03:47;6.72;;;6.05;;
15159;SDS011;7680;48.800;9.680;2023-11-21T08:08:53;5.78;;;5.18;;
15159;SDS011;7680;48.800;9.680;2023-11-21T08:13:58;5.55;;;5.10;;
15159;SDS011;7680;48.800;9.680;2023-11-21T08:19:01;5.55;;;5.05;;
15159;SDS011;7680;48.800;9.680;2023-11-21T08:24:05;5.78;;;4.93;;
15159;SDS011;7680;48.800;9.680;2023-11-21T08:29:13;6.70;;;5.15;;
15159;SDS011;7680;48.800;9.680;2023-11-21T08:34:17;4.45;;;4.05;;
15159;SDS011;7680;48.800;9.680;2023-11-21T08:39:21;3.72;;;3.42;;
15159;SDS011;7680;48.800;9.680;2023-11-21T08:44:26;3.13;;;2.83;;
15159;SDS011;7680;48.800;9.680;2023-11-21T08:49:30;4.68;;;4.07;;
15159;SDS011;7680;48.800;9.680;2023-11-21T08:54:33;4.22;;;3.70;;
15159;SDS011;7680;48.800;9.680;2023-11-21T08:59:39;3.97;;;3.63;;
15159;SDS011;7680;48.800;9.680;2023-11-21T09:04:42;3.65;;;3.13;;
15159;SDS011;7680;48.800;9.680;2023-11-21T09:09:48;7.38;;;6.88;;
15159;SDS011;7680;48.800;9.680;2023-11-21T09:14:53;8.20;;;7.63;;
15159;SDS011;7680;48.800;9.680;2023-11-21T09:19:56;3.80;;;3.10;;
15159;SDS011;7680;48.800;9.680;2023-11-21T09:24:59;3.60;;;2.53;;
15159;SDS011;7680;48.800;9.680;2023-11-21T09:30:08;3.67;;;2.53;;
15159;SDS011;7680;48.800;9.680;2023-11-21T09:35:12;2.80;;;2.60;;
15159;SDS011;7680;48.800;9.680;2023-11-21T09:40:16;2.83;;;2.42;;
15159;SDS011;7680;48.800;9.680;2023-11-21T09:45:26;3.38;;;2.70;;
15159;SDS011;7680;48.800;9.680;2023-11-21T09:50:32;2.95;;;2.75;;
15159;SDS011;7680;48.800;9.680;2023-11-21T09:55:38;4.07;;;2.67;;
15159;SDS011;7680;48.800;9.680;2023-11-21T10:00:47;3.42;;;3.03;;
15159;SDS011;7680;48.800;9.680;2023-11-21T10:05:52;3.75;;;2.55;;
15159;SDS011;7680;48.800;9.680;2023-11-21T10:11:00;3.15;;;2.85;;
15159;SDS011;7680;48.800;9.680;2023-11-21T10:16:09;3.85;;;2.70;;
15159;SDS011;7680;48.800;9.680;2023-11-21T10:21:15;2.85;;;2.65;;
15159;SDS011;7680;48.800;9.680;2023-11-21T10:26:18;3.35;;;3.08;;
15159;SDS011;7680;48.800;9.680;2023-11-21T10:31:33;2.92;;;2.72;;
15159;SDS011;7680;48.800;9.680;2023-11-21T10:36:37;3.42;;;3.10;;
15159;SDS011;7680;48.800;9.680;2023-11-21T10:41:40;3.10;;;2.90;;
15159;SDS011;7680;48.800;9.680;2023-11-21T10:46:45;3.38;;;3.17;;
15159;SDS011;7680;48.800;9.680;2023-11-21T10:51:52;3.28;;;2.78;;
15159;SDS011;7680;48.800;9.680;2023-11-21T10:56:57;3.85;;;3.20;;
15159;SDS011;7680;48.800;9.680;2023-11-21T11:02:07;3.22;;;3.00;;
15159;SDS011;7680;48.800;9.680;2023-11-21T11:07:24;2.97;;;2.70;;
15159;SDS011;7680;48.800;9.680;2023-11-21T11:12:30;3.05;;;2.85;;
15159;SDS011;7680;48.800;9.680;2023-11-21T11:17:35;2.70;;;2.55;;
15159;SDS011;7680;48.800;9.680;2023-11-21T11:22:42;3.03;;;2.83;;
15159;SDS011;7680;48.800;9.680;2023-11-21T11:27:54;3.22;;;2.90;;
15159;SDS011;7680;48.800;9.680;2023-11-21T11:33:08;3.08;;;2.78;;
15159;SDS011;7680;48.800;9.680;2023-11-21T11:38:22;2.75;;;2.50;;
15159;SDS011;7680;48.800;9.680;2023-11-21T11:43:27;2.55;;;2.35;;
15159;SDS011;7680;48.800;9.680;2023-11-21T11:48:32;2.53;;;2.38;;
15159;SDS011;7680;48.800;9.680;2023-11-21T11:53:40;3.03;;;2.60;;
15159;SDS011;7680;48.800;9.680;2023-11-21T11:58:44;6.13;;;5.72;;
15159;SDS011;7680;48.800;9.680;2023-11-21T12:09:36;2.35;;;2.15;;
15159;SDS011;7680;48.800;9.680;2023-11-21T12:14:39;3.47;;;2.17;;
15159;SDS011;7680;48.800;9.680;2023-11-21T12:19:44;2.72;;;2.45;;
15159;SDS011;7680;48.800;9.680;2023-11-21T12:24:47;8.30;;;5.90;;
15159;SDS011;7680;48.800;9.680;2023-11-21T12:29:50;13.15;;;9.45;;
15159;SDS011;7680;48.800;9.680;2023-11-21T12:34:56;22.75;;;16.50;;
15159;SDS011;7680;48.800;9.680;2023-11-21T12:39:59;13.48;;;10.32;;
15159;SDS011;7680;48.800;9.680;2023-11-21T12:45:09;25.65;;;20.52;;
15159;SDS011;7680;48.800;9.680;2023-11-21T12:50:23;4.43;;;3.60;;
15159;SDS011;7680;48.800;9.680;2023-11-21T12:55:30;2.63;;;2.42;;
15159;SDS011;7680;48.800;9.680;2023-11-21T13:00:40;2.33;;;2.15;;
15159;SDS011;7680;48.800;9.680;2023-11-21T13:05:47;2.63;;;2.25;;
15159;SDS011;7680;48.800;9.680;2023-11-21T13:10:54;2.05;;;1.95;;
15159;SDS011;7680;48.800;9.680;2023-11-21T13:16:00;2.33;;;2.15;;
15159;SDS011;7680;48.800;9.680;2023-11-21T13:21:08;2.45;;;2.25;;
15159;SDS011;7680;48.800;9.680;2023-11-21T13:26:14;2.80;;;2.65;;
15159;SDS011;7680;48.800;9.680;2023-11-21T13:31:17;2.95;;;2.75;;
15159;SDS011;7680;48.800;9.680;2023-11-21T13:36:28;3.30;;;3.10;;
15159;SDS011;7680;48.800;9.680;2023-11-21T13:41:34;3.30;;;3.00;;
15159;SDS011;7680;48.800;9.680;2023-11-21T13:46:40;3.30;;;2.92;;
15159;SDS011;7680;48.800;9.680;2023-11-21T13:51:44;3.20;;;2.97;;
15159;SDS011;7680;48.800;9.680;2023-11-21T13:56:52;3.63;;;3.42;;
15159;SDS011;7680;48.800;9.680;2023-11-21T14:01:56;5.38;;;4.53;;
15159;SDS011;7680;48.800;9.680;2023-11-21T14:07:03;9.98;;;8.73;;
15159;SDS011;7680;48.800;9.680;2023-11-21T14:12:22;2.97;;;2.65;;
15159;SDS011;7680;48.800;9.680;2023-11-21T14:17:25;2.78;;;1.98;;
15159;SDS011;7680;48.800;9.680;2023-11-21T14:22:30;4.38;;;4.00;;
15159;SDS011;7680;48.800;9.680;2023-11-21T14:27:33;2.38;;;2.17;;
15159;SDS011;7680;48.800;9.680;2023-11-21T14:32:37;1.83;;;1.75;;
15159;SDS011;7680;48.800;9.680;2023-11-21T14:37:42;2.35;;;2.25;;
15159;SDS011;7680;48.800;9.680;2023-11-21T14:42:45;2.00;;;1.90;;
15159;SDS011;7680;48.800;9.680;2023-11-21T14:47:49;3.83;;;3.63;;
15159;SDS011;7680;48.800;9.680;2023-11-21T14:53:01;5.90;;;5.60;;
15159;SDS011;7680;48.800;9.680;2023-11-21T14:58:07;5.25;;;4.95;;
15159;SDS011;7680;48.800;9.680;2023-11-21T15:03:14;2.88;;;2.67;;
15159;SDS011;7680;48.800;9.680;2023-11-21T15:08:39;3.38;;;3.17;;
15159;SDS011;7680;48.800;9.680;2023-11-21T15:13:44;2.38;;;2.28;;
15159;SDS011;7680;48.800;9.680;2023-11-21T15:18:50;3.03;;;2.75;;
15159;SDS011;7680;48.800;9.680;2023-11-21T15:23:54;3.15;;;2.85;;
15159;SDS011;7680;48.800;9.680;2023-11-21T15:28:57;2.50;;;2.40;;
15159;SDS011;7680;48.800;9.680;2023-11-21T15:34:00;3.30;;;3.10;;
15159;SDS011;7680;48.800;9.680;2023-11-21T15:39:07;3.67;;;3.40;;
15159;SDS011;7680;48.800;9.680;2023-11-21T15:44:11;4.10;;;3.80;;
15159;SDS011;7680;48.800;9.680;2023-11-21T15:49:15;3.88;;;3.58;;
15159;SDS011;7680;48.800;9.680;2023-11-21T15:54:24;4.55;;;4.15;;
15159;SDS011;7680;48.800;9.680;2023-11-21T15:59:28;6.75;;;5.95;;
15159;SDS011;7680;48.800;9.680;2023-11-21T16:04:33;15.05;;;13.43;;
15159;SDS011;7680;48.800;9.680;2023-11-21T16:09:39;8.50;;;7.70;;
15159;SDS011;7680;48.800;9.680;2023-11-21T16:14:44;6.85;;;5.78;;
15159;SDS011;7680;48.800;9.680;2023-11-21T16:19:49;14.85;;;9.73;;
15159;SDS011;7680;48.800;9.680;2023-11-21T16:24:53;15.05;;;9.98;;
15159;SDS011;7680;48.800;9.680;2023-11-21T16:29:57;17.30;;;12.85;;
15159;SDS011;7680;48.800;9.680;2023-11-21T16:35:00;14.07;;;12.23;;
15159;SDS011;7680;48.800;9.680;2023-11-21T16:40:06;8.18;;;7.38;;
15159;SDS011;7680;48.800;9.680;2023-11-21T16:45:12;7.43;;;6.72;;
15159;SDS011;7680;48.800;9.680;2023-11-21T16:50:15;35.30;;;27.73;;
15159;SDS011;7680;48.800;9.680;2023-11-21T16:55:20;11.70;;;10.55;;
15159;SDS011;7680;48.800;9.680;2023-11-21T17:00:25;13.27;;;12.00;;
15159;SDS011;7680;48.800;9.680;2023-11-21T17:05:29;23.80;;;21.30;;
15159;SDS011;7680;48.800;9.680;2023-11-21T17:10:34;13.82;;;12.52;;
15159;SDS011;7680;48.800;9.680;2023-11-21T17:15:38;13.82;;;12.73;;
15159;SDS011;7680;48.800;9.680;2023-11-21T17:20:41;11.35;;;10.27;;
15159;SDS011;7680;48.800;9.680;2023-11-21T17:25:46;12.13;;;11.13;;
15159;SDS011;7680;48.800;9.680;2023-11-21T17:30:49;10.13;;;9.32;;
15159;SDS011;7680;48.800;9.680;2023-11-21T17:35:52;14.15;;;12.68;;
15159;SDS011;7680;48.800;9.680;2023-11-21T17:40:57;15.05;;;12.23;;
15159;SDS011;7680;48.800;9.680;2023-11-21T17:46:01;15.23;;;13.77;;
15159;SDS011;7680;48.800;9.680;2023-11-21T17:51:05;27.55;;;20.27;;
15159;SDS011;7680;48.800;9.680;2023-11-21T17:56:13;19.80;;;16.02;;
15159;SDS011;7680;48.800;9.680;2023-11-21T18:01:17;46.50;;;29.23;;
15159;SDS011;7680;48.800;9.680;2023-11-21T18:06:21;44.70;;;32.13;;
15159;SDS011;7680;48.800;9.680;2023-11-21T18:11:26;16.40;;;13.98;;
15159;SDS011;7680;48.800;9.680;2023-11-21T18:16:29;14.83;;;11.63;;
15159;SDS011;7680;48.800;9.680;2023-11-21T18:21:32;22.90;;;19.33;;
15159;SDS011;7680;48.800;9.680;2023-11-21T18:26:37;25.43;;;22.73;;
15159;SDS011;7680;48.800;9.680;2023-11-21T18:31:40;21.00;;;17.97;;
15159;SDS011;7680;48.800;9.680;2023-11-21T18:36:44;14.65;;;12.40;;
15159;SDS011;7680;48.800;9.680;2023-11-21T18:41:48;14.77;;;13.27;;
15159;SDS011;7680;48.800;9.680;2023-11-21T18:46:53;14.67;;;13.27;;
15159;SDS011;7680;48.800;9.680;2023-11-21T18:51:56;13.07;;;11.73;;
15159;SDS011;7680;48.800;9.680;2023-11-21T18:57:00;18.35;;;15.05;;
15159;SDS011;7680;48.800;9.680;2023-11-21T19:02:04;20.02;;;17.85;;
15159;SDS011;7680;48.800;9.680;2023-11-21T19:07:09;21.57;;;18.53;;
15159;SDS011;7680;48.800;9.680;2023-11-21T19:12:15;17.03;;;15.23;;
15159;SDS011;7680;48.800;9.680;2023-11-21T19:17:18;17.77;;;15.27;;
15159;SDS011;7680;48.800;9.680;2023-11-21T19:22:22;19.75;;;17.67;;
15159;SDS011;7680;48.800;9.680;2023-11-21T19:27:27;19.43;;;15.17;;
15159;SDS011;7680;48.800;9.680;2023-11-21T19:32:31;18.70;;;15.00;;
15159;SDS011;7680;48.800;9.680;2023-11-21T19:37:37;17.33;;;14.37;;
15159;SDS011;7680;48.800;9.680;2023-11-21T19:42:42;22.10;;;18.43;;
15159;SDS011;7680;48.800;9.680;2023-11-21T19:47:45;40.23;;;29.80;;
15159;SDS011;7680;48.800;9.680;2023-11-21T19:52:48;21.87;;;16.90;;
15159;SDS011;7680;48.800;9.680;2023-11-21T19:57:53;35.08;;;27.60;;
15159;SDS011;7680;48.800;9.680;2023-11-21T20:02:56;21.87;;;17.63;;
15159;SDS011;7680;48.800;9.680;2023-11-21T20:08:00;19.65;;;16.77;;
15159;SDS011;7680;48.800;9.680;2023-11-21T20:13:04;18.80;;;16.77;;
15159;SDS011;7680;48.800;9.680;2023-11-21T20:18:08;22.42;;;18.08;;
15159;SDS011;7680;48.800;9.680;2023-11-21T20:23:13;20.77;;;17.65;;
15159;SDS011;7680;48.800;9.680;2023-11-21T20:28:18;16.73;;;15.02;;
15159;SDS011;7680;48.800;9.680;2023-11-21T20:33:21;16.90;;;14.77;;
15159;SDS011;7680;48.800;9.680;2023-11-21T20:38:24;19.13;;;15.27;;
15159;SDS011;7680;48.800;9.680;2023-11-21T20:43:30;17.20;;;14.18;;
15159;SDS011;7680;48.800;9.680;2023-11-21T20:48:33;17.17;;;15.15;;
15159;SDS011;7680;48.800;9.680;2023-11-21T20:53:37;17.25;;;14.82;;
15159;SDS011;7680;48.800;9.680;2023-11-21T20:58:41;20.88;;;18.60;;
15159;SDS011;7680;48.800;9.680;2023-11-21T21:03:45;25.00;;;22.60;;
15159;SDS011;7680;48.800;9.680;2023-11-21T21:08:48;21.37;;;19.17;;
15159;SDS011;7680;48.800;9.680;2023-11-21T21:13:53;23.55;;;20.08;;
15159;SDS011;7680;48.800;9.680;2023-11-21T21:18:57;19.23;;;17.00;;
15159;SDS011;7680;48.800;9.680;2023-11-21T21:24:01;21.45;;;17.98;;
15159;SDS011;7680;48.800;9.680;2023-11-21T21:29:06;23.33;;;18.80;;
15159;SDS011;7680;48.800;9.680;2023-11-21T21:34:10;20.77;;;18.63;;
15159;SDS011;7680;48.800;9.680;2023-11-21T21:39:16;22.52;;;18.38;;
15159;SDS011;7680;48.800;9.680;2023-11-21T21:44:22;20.27;;;18.17;;
15159;SDS011;7680;48.800;9.680;2023-11-21T21:49:25;22.52;;;18.17;;
15159;SDS011;7680;48.800;9.680;2023-11-21T21:54:28;20.73;;;18.40;;
15159;SDS011;7680;48.800;9.680;2023-11-21T21:59:33;26.45;;;19.48;;
15159;SDS011;7680;48.800;9.680;2023-11-21T22:04:36;20.42;;;18.23;;
15159;SDS011;7680;48.800;9.680;2023-11-21T22:09:41;20.20;;;17.73;;
15159;SDS011;7680;48.800;9.680;2023-11-21T22:14:45;21.80;;;18.00;;
15159;SDS011;7680;48.800;9.680;2023-11-21T22:19:48;20.33;;;18.20;;
15159;SDS011;7680;48.800;9.680;2023-11-21T22:24:53;23.17;;;20.55;;
15159;SDS011;7680;48.800;9.680;2023-11-21T22:29:58;21.55;;;19.35;;
15159;SDS011;7680;48.800;9.680;2023-11-21T22:35:01;23.45;;;20.63;;
15159;SDS011;7680;48.800;9.680;2023-11-21T22:40:05;27.95;;;22.20;;
15159;SDS011;7680;48.800;9.680;2023-11-21T22:45:11;28.53;;;23.67;;
15159;SDS011;7680;48.800;9.680;2023-11-21T22:50:14;29.00;;;23.80;;
15159;SDS011;7680;48.800;9.680;2023-11-21T22:55:18;26.23;;;22.33;;
15159;SDS011;7680;48.800;9.680;2023-11-21T23:00:22;25.48;;;22.15;;
15159;SDS011;7680;48.800;9.680;2023-11-21T23:05:31;26.90;;;23.38;;
15159;SDS011;7680;48.800;9.680;2023-11-21T23:10:34;25.42;;;21.30;;
15159;SDS011;7680;48.800;9.680;2023-11-21T23:15:40;23.50;;;20.02;;
15159;SDS011;7680;48.800;9.680;2023-11-21T23:20:48;26.92;;;20.95;;
15159;SDS011;7680;48.800;9.680;2023-11-21T23:25:51;23.02;;;18.35;;
15159;SDS011;7680;48.800;9.680;2023-11-21T23:30:57;20.95;;;16.42;;
15159;SDS011;7680;48.800;9.680;2023-11-21T23:36:00;17.00;;;14.77;;
15159;SDS011;7680;48.800;9.680;2023-11-21T23:41:03;15.23;;;13.68;;
15159;SDS011;7680;48.800;9.680;2023-11-21T23:46:08;14.80;;;12.30;;
15159;SDS011;7680;48.800;9.680;2023-11-21T23:51:12;10.57;;;9.07;;
15159;SDS011;7680;48.800;9.680;2023-11-21T23:56:15;4.80;;;4.40;;
